Time;durP1;ratioP1;P1;durP2;ratioP2;P2;SDS_P1;SDS_P2;PMS_P1;PMS_P2;Temp;Humidity;BMP_temperature;BMP_pressure;BME280_temperature;BME280_humidity;BME280_pressure;Samples;Min_cycle;Max_cycle;Signal;HPM_P1;HPM_P2
2021/10/29 00:00:59;;;;;;;33.28;17.20;;;;;;;;;;5061300;28;20025;-78
2021/10/29 00:03:25;;;;;;;32.15;16.60;;;;;;;;;;5061502;28;20037;-78
2021/10/29 00:05:50;;;;;;;26.23;15.32;;;;;;;;;;5062099;28;20039;-79
2021/10/29 00:08:19;;;;;;;31.08;15.38;;;;;;;;;;5062693;28;20033;-80
2021/10/29 00:10:44;;;;;;;27.73;15.30;;;;;;;;;;5062633;28;20025;-78
2021/10/29 00:13:10;;;;;;;26.05;15.20;;;;;;;;;;5062139;28;20036;-79
2021/10/29 00:15:38;;;;;;;27.35;15.18;;;;;;;;;;5063011;28;20064;-79
2021/10/29 00:18:03;;;;;;;32.22;16.05;;;;;;;;;;5062474;28;20047;-79
2021/10/29 00:20:29;;;;;;;28.13;14.65;;;;;;;;;;5062613;28;20151;-78
2021/10/29 00:22:54;;;;;;;33.75;15.82;;;;;;;;;;5061305;28;20024;-79
2021/10/29 00:25:20;;;;;;;34.03;16.13;;;;;;;;;;5061782;28;20033;-79
2021/10/29 00:27:45;;;;;;;27.67;14.88;;;;;;;;;;5061551;28;20040;-79
2021/10/29 00:30:12;;;;;;;28.27;15.02;;;;;;;;;;5060908;28;20088;-79
2021/10/29 00:32:37;;;;;;;29.23;15.27;;;;;;;;;;5060734;28;20048;-80
2021/10/29 00:35:03;;;;;;;34.92;17.25;;;;;;;;;;5060981;28;20040;-80
2021/10/29 00:37:30;;;;;;;29.33;16.25;;;;;;;;;;5062385;28;20040;-80
2021/10/29 00:39:56;;;;;;;30.88;16.48;;;;;;;;;;5065076;28;20061;-79
2021/10/29 00:42:21;;;;;;;29.25;16.80;;;;;;;;;;5064053;28;20052;-79
2021/10/29 00:44:47;;;;;;;30.08;16.38;;;;;;;;;;5066373;28;20040;-80
2021/10/29 00:47:13;;;;;;;31.08;16.80;;;;;;;;;;5064307;28;20037;-80
2021/10/29 00:49:38;;;;;;;34.28;17.02;;;;;;;;;;5065836;28;20048;-80
2021/10/29 00:52:04;;;;;;;28.95;16.70;;;;;;;;;;5066156;28;20037;-80
2021/10/29 00:54:29;;;;;;;27.40;16.38;;;;;;;;;;5064814;28;20031;-79
2021/10/29 00:56:55;;;;;;;28.58;15.07;;;;;;;;;;5064454;28;20627;-79
2021/10/29 00:59:21;;;;;;;30.15;15.35;;;;;;;;;;5066219;28;20040;-79
2021/10/29 01:01:48;;;;;;;31.05;15.35;;;;;;;;;;5065073;28;20029;-80
2021/10/29 01:04:17;;;;;;;32.47;15.65;;;;;;;;;;5065499;28;20512;-80
2021/10/29 01:06:43;;;;;;;28.83;15.20;;;;;;;;;;5064135;28;20036;-80
2021/10/29 01:09:09;;;;;;;29.00;15.52;;;;;;;;;;5064615;28;20028;-79
2021/10/29 01:11:35;;;;;;;31.15;16.42;;;;;;;;;;5063764;28;20037;-81
2021/10/29 01:14:00;;;;;;;35.78;17.73;;;;;;;;;;5064291;28;20124;-79
2021/10/29 01:16:25;;;;;;;36.20;16.95;;;;;;;;;;5065250;28;20055;-79
2021/10/29 01:18:51;;;;;;;38.05;17.48;;;;;;;;;;5064471;28;20119;-79
2021/10/29 01:21:17;;;;;;;32.58;17.55;;;;;;;;;;5064704;28;20035;-81
2021/10/29 01:23:43;;;;;;;35.92;17.90;;;;;;;;;;5063969;28;20097;-80
2021/10/29 01:26:12;;;;;;;36.72;18.88;;;;;;;;;;5063932;28;20033;-80
2021/10/29 01:28:38;;;;;;;42.20;19.05;;;;;;;;;;5064128;28;20025;-79
2021/10/29 01:31:04;;;;;;;43.03;20.30;;;;;;;;;;5063559;28;20064;-80
2021/10/29 01:33:31;;;;;;;37.30;19.10;;;;;;;;;;5063644;28;20021;-80
2021/10/29 01:35:57;;;;;;;41.33;19.08;;;;;;;;;;5064499;28;20069;-79
2021/10/29 01:38:32;;;;;;;44.33;19.90;;;;;;;;;;5063788;28;20037;-79
2021/10/29 01:40:58;;;;;;;39.47;20.17;;;;;;;;;;5065144;28;20035;-79
2021/10/29 01:43:24;;;;;;;46.72;20.17;;;;;;;;;;5063906;28;20448;-79
2021/10/29 01:45:49;;;;;;;41.53;20.88;;;;;;;;;;5063828;28;20060;-79
2021/10/29 01:48:18;;;;;;;40.80;20.77;;;;;;;;;;5065374;28;20063;-80
2021/10/29 01:50:43;;;;;;;47.78;22.23;;;;;;;;;;5063608;28;20515;-79
2021/10/29 01:53:09;;;;;;;42.30;20.42;;;;;;;;;;5065062;28;20252;-79
2021/10/29 01:55:34;;;;;;;44.47;21.70;;;;;;;;;;5063670;28;20036;-79
2021/10/29 01:57:59;;;;;;;40.83;20.65;;;;;;;;;;5064917;28;20025;-79
2021/10/29 02:00:25;;;;;;;45.45;21.40;;;;;;;;;;5065014;28;20041;-79
2021/10/29 02:02:50;;;;;;;46.50;22.17;;;;;;;;;;5064808;28;20039;-79
2021/10/29 02:05:16;;;;;;;43.22;21.98;;;;;;;;;;5064400;28;20033;-79
2021/10/29 02:07:41;;;;;;;47.05;23.50;;;;;;;;;;5064495;28;20025;-79
2021/10/29 02:10:08;;;;;;;51.63;23.08;;;;;;;;;;5064403;28;20036;-80
2021/10/29 02:12:33;;;;;;;47.35;23.58;;;;;;;;;;5062808;28;20037;-79
2021/10/29 02:14:58;;;;;;;40.13;20.75;;;;;;;;;;5062874;28;20052;-80
2021/10/29 02:17:24;;;;;;;48.53;22.85;;;;;;;;;;5064613;28;20043;-80
2021/10/29 02:19:50;;;;;;;49.88;23.67;;;;;;;;;;5063176;28;20025;-80
2021/10/29 02:22:16;;;;;;;54.78;23.60;;;;;;;;;;5064402;28;20036;-80
2021/10/29 02:24:41;;;;;;;49.45;23.48;;;;;;;;;;5063161;28;20029;-80
2021/10/29 02:27:07;;;;;;;55.65;25.23;;;;;;;;;;5064129;28;20033;-79
2021/10/29 02:29:33;;;;;;;50.60;25.15;;;;;;;;;;5063071;28;20039;-81
2021/10/29 02:31:59;;;;;;;54.35;24.92;;;;;;;;;;5063158;28;20064;-80
2021/10/29 02:34:24;;;;;;;55.53;25.77;;;;;;;;;;5062189;28;20029;-79
2021/10/29 02:36:50;;;;;;;56.15;25.30;;;;;;;;;;5062846;28;20025;-80
2021/10/29 02:39:15;;;;;;;56.50;25.33;;;;;;;;;;5064310;28;20040;-81
2021/10/29 02:41:42;;;;;;;44.50;24.25;;;;;;;;;;5063473;28;20025;-82
2021/10/29 02:44:07;;;;;;;48.38;26.35;;;;;;;;;;5062298;28;20044;-81
2021/10/29 02:46:33;;;;;;;59.35;28.55;;;;;;;;;;5061714;28;20025;-80
2021/10/29 02:48:59;;;;;;;46.65;24.83;;;;;;;;;;5063638;28;20044;-81
2021/10/29 02:51:25;;;;;;;43.83;25.10;;;;;;;;;;5061801;28;20036;-81
2021/10/29 02:53:51;;;;;;;48.72;26.77;;;;;;;;;;5064138;28;20032;-81
2021/10/29 02:56:17;;;;;;;44.85;24.40;;;;;;;;;;5062132;28;20036;-81
2021/10/29 02:58:42;;;;;;;46.63;24.88;;;;;;;;;;5063980;28;20469;-80
2021/10/29 03:01:07;;;;;;;47.88;24.00;;;;;;;;;;5062880;28;20044;-80
2021/10/29 03:03:33;;;;;;;42.75;22.90;;;;;;;;;;5062449;28;20083;-80
2021/10/29 03:05:58;;;;;;;44.95;24.65;;;;;;;;;;5062067;28;20025;-81
2021/10/29 03:08:24;;;;;;;44.83;24.23;;;;;;;;;;5063355;28;20036;-81
2021/10/29 03:10:50;;;;;;;45.92;24.25;;;;;;;;;;5061261;28;20033;-80
2021/10/29 03:13:16;;;;;;;43.40;23.92;;;;;;;;;;5061665;28;20032;-81
2021/10/29 03:15:43;;;;;;;51.92;23.60;;;;;;;;;;5063767;28;20024;-81
2021/10/29 03:18:08;;;;;;;50.08;23.75;;;;;;;;;;5061126;28;20036;-80
2021/10/29 03:20:34;;;;;;;52.08;26.13;;;;;;;;;;5062546;28;20068;-74
2021/10/29 03:22:59;;;;;;;51.75;24.38;;;;;;;;;;5061913;28;20020;-80
2021/10/29 03:25:25;;;;;;;57.72;26.25;;;;;;;;;;5063674;28;20035;-79
2021/10/29 03:27:51;;;;;;;51.70;25.15;;;;;;;;;;5063431;28;20040;-85
2021/10/29 03:30:16;;;;;;;56.53;26.92;;;;;;;;;;5063315;28;20048;-84
2021/10/29 03:32:42;;;;;;;64.03;27.48;;;;;;;;;;5061967;28;20029;-83
2021/10/29 03:35:07;;;;;;;66.97;27.60;;;;;;;;;;5063168;28;20464;-83
2021/10/29 03:42:47;;;;;;;59.35;26.83;;;;;;;;;;5062557;28;20033;-83
2021/10/29 03:45:15;;;;;;;61.33;26.80;;;;;;;;;;5061896;28;20037;-83
2021/10/29 03:47:48;;;;;;;61.90;26.15;;;;;;;;;;5078611;28;20021;-83
2021/10/29 03:50:25;;;;;;;66.72;28.10;;;;;;;;;;5061788;28;20025;-84
2021/10/29 03:55:21;;;;;;;81.53;30.50;;;;;;;;;;5062741;28;20029;-79
2021/10/29 03:57:46;;;;;;;63.22;28.20;;;;;;;;;;5061420;28;20025;-79
2021/10/29 04:00:12;;;;;;;71.93;27.52;;;;;;;;;;5061972;28;20043;-78
2021/10/29 04:02:37;;;;;;;77.90;29.63;;;;;;;;;;5062557;28;20032;-79
2021/10/29 04:05:03;;;;;;;69.15;28.23;;;;;;;;;;5061739;28;20047;-79
2021/10/29 04:07:28;;;;;;;62.78;27.30;;;;;;;;;;5063028;28;20683;-79
2021/10/29 04:09:54;;;;;;;65.07;26.83;;;;;;;;;;5063090;28;20051;-78
2021/10/29 04:12:19;;;;;;;70.03;28.63;;;;;;;;;;5061394;28;20116;-79
2021/10/29 04:14:45;;;;;;;71.68;27.90;;;;;;;;;;5067033;28;20040;-78
2021/10/29 04:17:10;;;;;;;72.35;27.55;;;;;;;;;;5065711;28;20021;-79
2021/10/29 04:19:36;;;;;;;81.35;29.48;;;;;;;;;;5067160;28;20023;-79
2021/10/29 04:22:01;;;;;;;83.88;30.13;;;;;;;;;;5066988;28;20027;-79
2021/10/29 04:24:27;;;;;;;87.20;29.98;;;;;;;;;;5066896;28;20017;-79
2021/10/29 04:26:57;;;;;;;88.90;30.85;;;;;;;;;;5066632;28;20044;-78
2021/10/29 04:29:26;;;;;;;92.72;31.30;;;;;;;;;;5066827;28;20017;-78
2021/10/29 04:31:51;;;;;;;90.60;31.33;;;;;;;;;;5064915;28;20041;-79
2021/10/29 04:34:20;;;;;;;94.05;32.92;;;;;;;;;;5066230;28;20056;-80
2021/10/29 04:36:46;;;;;;;83.68;29.77;;;;;;;;;;5066838;28;20029;-79
2021/10/29 04:39:13;;;;;;;84.97;30.42;;;;;;;;;;5065163;28;20307;-79
2021/10/29 04:41:45;;;;;;;89.85;29.90;;;;;;;;;;5081179;28;20052;-78
2021/10/29 04:44:11;;;;;;;75.70;27.38;;;;;;;;;;5066496;28;20032;-78
2021/10/29 04:46:37;;;;;;;77.80;27.75;;;;;;;;;;5066221;28;20025;-79
2021/10/29 04:49:03;;;;;;;68.70;26.17;;;;;;;;;;5066628;28;20036;-78
2021/10/29 04:51:29;;;;;;;58.50;25.88;;;;;;;;;;5066487;28;20021;-78
2021/10/29 04:53:56;;;;;;;52.70;24.77;;;;;;;;;;5066558;28;20055;-78
2021/10/29 04:56:22;;;;;;;62.42;26.60;;;;;;;;;;5066352;28;20029;-77
2021/10/29 04:58:48;;;;;;;62.35;25.42;;;;;;;;;;5066296;28;20036;-78
2021/10/29 05:01:13;;;;;;;58.72;24.33;;;;;;;;;;5066157;28;20029;-78
2021/10/29 05:03:39;;;;;;;53.65;24.52;;;;;;;;;;5065171;28;20041;-78
2021/10/29 05:06:04;;;;;;;52.22;22.88;;;;;;;;;;5064342;28;20024;-78
2021/10/29 05:08:30;;;;;;;61.58;24.30;;;;;;;;;;5064834;28;20032;-79
2021/10/29 05:10:55;;;;;;;53.88;23.52;;;;;;;;;;5063017;28;20029;-80
2021/10/29 05:13:20;;;;;;;55.15;24.40;;;;;;;;;;5064444;28;20036;-79
2021/10/29 05:15:46;;;;;;;53.70;24.17;;;;;;;;;;5064509;28;20036;-79
2021/10/29 05:18:18;;;;;;;55.75;22.85;;;;;;;;;;5064147;28;20075;-79
2021/10/29 05:20:44;;;;;;;52.97;22.10;;;;;;;;;;5065794;28;20024;-79
2021/10/29 05:23:10;;;;;;;64.28;24.17;;;;;;;;;;5064406;28;20078;-79
2021/10/29 05:25:36;;;;;;;54.90;23.00;;;;;;;;;;5065541;28;20035;-79
2021/10/29 05:28:02;;;;;;;63.42;26.20;;;;;;;;;;5065726;28;20060;-79
2021/10/29 05:30:27;;;;;;;55.22;23.08;;;;;;;;;;5065560;28;20045;-79
2021/10/29 05:32:53;;;;;;;58.25;25.77;;;;;;;;;;5063484;28;20021;-80
2021/10/29 05:35:19;;;;;;;62.83;25.42;;;;;;;;;;5063726;28;20021;-80
2021/10/29 05:37:44;;;;;;;58.03;23.77;;;;;;;;;;5065482;28;20063;-80
2021/10/29 05:40:11;;;;;;;68.10;24.35;;;;;;;;;;5065122;28;20048;-79
2021/10/29 05:42:37;;;;;;;68.75;26.30;;;;;;;;;;5064632;28;20496;-80
2021/10/29 05:45:08;;;;;;;67.65;25.20;;;;;;;;;;5063915;28;20035;-79
2021/10/29 05:47:34;;;;;;;64.53;26.08;;;;;;;;;;5065627;28;20024;-80
2021/10/29 05:49:59;;;;;;;77.00;26.60;;;;;;;;;;5063481;28;20025;-80
2021/10/29 05:52:28;;;;;;;72.93;28.15;;;;;;;;;;5065280;28;20050;-80
2021/10/29 05:57:19;;;;;;;75.55;26.80;;;;;;;;;;5065307;28;20029;-80
2021/10/29 05:59:44;;;;;;;84.43;26.90;;;;;;;;;;5064594;28;20013;-80
2021/10/29 06:02:10;;;;;;;76.07;27.42;;;;;;;;;;5080157;28;20017;-80
2021/10/29 06:04:35;;;;;;;104.15;30.42;;;;;;;;;;5064971;28;20029;-80
2021/10/29 06:07:01;;;;;;;85.80;27.92;;;;;;;;;;5062705;28;20029;-80
2021/10/29 06:09:27;;;;;;;100.13;29.40;;;;;;;;;;5063343;28;20072;-80
2021/10/29 06:11:52;;;;;;;102.47;31.55;;;;;;;;;;5064257;28;20510;-80
2021/10/29 06:14:18;;;;;;;109.90;31.20;;;;;;;;;;5063467;28;20017;-81
2021/10/29 06:16:44;;;;;;;115.63;30.65;;;;;;;;;;5064679;28;20024;-82
2021/10/29 06:19:09;;;;;;;109.20;31.05;;;;;;;;;;5063498;28;20066;-81
2021/10/29 06:21:41;;;;;;;97.20;29.00;;;;;;;;;;5063358;28;20040;-81
2021/10/29 06:24:13;;;;;;;96.60;29.48;;;;;;;;;;5063134;28;20021;-81
2021/10/29 06:26:50;;;;;;;87.70;27.50;;;;;;;;;;5063269;28;20162;-81
2021/10/29 06:29:15;;;;;;;85.53;28.40;;;;;;;;;;5064556;28;20027;-81
2021/10/29 06:31:42;;;;;;;89.57;28.50;;;;;;;;;;5061888;28;20105;-81
2021/10/29 06:34:07;;;;;;;94.32;30.67;;;;;;;;;;5062107;28;20092;-81
2021/10/29 06:36:33;;;;;;;98.40;30.65;;;;;;;;;;5061376;28;20036;-81
2021/10/29 06:39:00;;;;;;;109.22;32.90;;;;;;;;;;5063676;28;20032;-81
2021/10/29 06:41:25;;;;;;;119.13;34.17;;;;;;;;;;5063759;28;20416;-81
2021/10/29 06:44:06;;;;;;;107.60;32.38;;;;;;;;;;5063756;28;20040;-81
2021/10/29 06:46:38;;;;;;;130.73;35.72;;;;;;;;;;5063882;28;20029;-81
2021/10/29 06:49:09;;;;;;;117.97;32.75;;;;;;;;;;5062975;28;20060;-81
2021/10/29 06:59:55;;;;;;;113.50;35.08;;;;;;;;;;5063587;28;20051;-80
2021/10/29 07:40:11;;;;;;;109.05;37.78;;;;;;;;;;5063683;28;20456;-80
2021/10/29 07:42:55;;;;;;;120.32;37.88;;;;;;;;;;5061349;28;20021;-80
2021/10/29 07:45:22;;;;;;;;;;;;;;;;;;5063004;28;20044;-80
2021/10/29 07:47:48;;;;;;;106.70;34.30;;;;;;;;;;5064111;28;20379;-80
2021/10/29 07:50:15;;;;;;;118.57;38.15;;;;;;;;;;5066500;28;20013;-80
2021/10/29 07:52:42;;;;;;;114.40;39.15;;;;;;;;;;5067318;28;20089;-80
2021/10/29 07:55:09;;;;;;;119.78;38.95;;;;;;;;;;5067354;28;20061;-80
2021/10/29 07:57:35;;;;;;;128.02;40.55;;;;;;;;;;5066048;28;20045;-79
2021/10/29 08:00:04;;;;;;;123.38;38.88;;;;;;;;;;5066053;28;20033;-79
2021/10/29 08:02:30;;;;;;;126.88;39.60;;;;;;;;;;5065865;28;20487;-79
2021/10/29 08:04:56;;;;;;;106.88;37.03;;;;;;;;;;5067459;28;20020;-80
2021/10/29 08:07:23;;;;;;;102.38;37.45;;;;;;;;;;5067335;28;20021;-80
2021/10/29 08:09:49;;;;;;;102.63;38.15;;;;;;;;;;5067205;28;20092;-80
2021/10/29 08:12:16;;;;;;;99.28;37.80;;;;;;;;;;5067049;28;20102;-79
2021/10/29 08:14:42;;;;;;;103.03;37.20;;;;;;;;;;5066008;28;20070;-80
2021/10/29 08:17:07;;;;;;;108.15;39.03;;;;;;;;;;5065725;28;20044;-79
2021/10/29 08:19:33;;;;;;;113.82;39.75;;;;;;;;;;5067466;28;20032;-79
2021/10/29 08:22:00;;;;;;;110.72;41.78;;;;;;;;;;5065558;28;20321;-79
2021/10/29 08:24:26;;;;;;;100.60;37.83;;;;;;;;;;5065696;28;20024;-78
2021/10/29 08:26:52;;;;;;;110.53;39.10;;;;;;;;;;5066983;28;20112;-78
2021/10/29 08:29:18;;;;;;;99.43;38.67;;;;;;;;;;5065655;28;20025;-80
2021/10/29 08:31:44;;;;;;;97.53;38.10;;;;;;;;;;5065254;28;20279;-79
2021/10/29 08:34:10;;;;;;;98.25;39.17;;;;;;;;;;5066930;28;20104;-79
2021/10/29 08:36:39;;;;;;;103.03;38.42;;;;;;;;;;5065284;28;20047;-79
2021/10/29 08:39:07;;;;;;;96.95;39.60;;;;;;;;;;5065307;28;20536;-79
2021/10/29 08:41:33;;;;;;;100.80;40.28;;;;;;;;;;5065543;28;20481;-79
2021/10/29 08:43:59;;;;;;;117.00;40.92;;;;;;;;;;5066957;28;20021;-79
2021/10/29 08:46:29;;;;;;;108.75;40.65;;;;;;;;;;5066708;28;20052;-79
2021/10/29 08:48:57;;;;;;;93.22;38.65;;;;;;;;;;5065360;28;20503;-79
2021/10/29 08:51:22;;;;;;;99.70;40.92;;;;;;;;;;5066696;28;20021;-79
2021/10/29 08:53:48;;;;;;;92.20;38.30;;;;;;;;;;5066741;28;20078;-79
2021/10/29 08:56:13;;;;;;;83.47;36.75;;;;;;;;;;5066436;28;20052;-79
2021/10/29 08:59:18;;;;;;;80.95;36.45;;;;;;;;;;5065490;28;20052;-79
2021/10/29 09:01:59;;;;;;;83.60;37.28;;;;;;;;;;5065084;28;20039;-79
2021/10/29 09:04:37;;;;;;;82.60;37.28;;;;;;;;;;5066334;28;20111;-79
2021/10/29 09:34:06;;;;;;;51.90;30.10;;;;;;;;;;5066336;28;20020;-79
2021/10/29 09:36:33;;;;;;;45.85;29.80;;;;;;;;;;5065977;28;20033;-78
2021/10/29 09:39:04;;;;;;;48.90;29.85;;;;;;;;;;5064718;28;20372;-79
2021/10/29 09:41:30;;;;;;;47.67;29.02;;;;;;;;;;5064504;28;20024;-79
2021/10/29 09:44:01;;;;;;;47.67;28.73;;;;;;;;;;5065828;28;20029;-78
2021/10/29 09:46:33;;;;;;;55.42;31.13;;;;;;;;;;5064489;28;20043;-78
2021/10/29 09:49:10;;;;;;;51.00;29.98;;;;;;;;;;5064610;28;20064;-78
2021/10/29 09:51:48;;;;;;;52.53;29.45;;;;;;;;;;5065665;28;20050;-77
2021/10/29 09:54:16;;;;;;;45.88;28.52;;;;;;;;;;5064300;28;20028;-78
2021/10/29 09:56:48;;;;;;;47.10;28.70;;;;;;;;;;5064219;28;20025;-76
2021/10/29 09:59:13;;;;;;;47.28;28.92;;;;;;;;;;5064342;28;20032;-78
2021/10/29 10:01:39;;;;;;;49.97;30.20;;;;;;;;;;5065473;28;20029;-77
2021/10/29 10:04:06;;;;;;;46.15;27.88;;;;;;;;;;5065600;28;20024;-77
2021/10/29 10:06:32;;;;;;;47.10;27.50;;;;;;;;;;5065367;28;20021;-74
2021/10/29 10:08:59;;;;;;;43.72;28.70;;;;;;;;;;5065430;28;20021;-77
2021/10/29 10:11:29;;;;;;;47.92;30.05;;;;;;;;;;5062950;28;20029;-75
2021/10/29 10:13:56;;;;;;;48.67;29.05;;;;;;;;;;5065273;28;20424;-75
2021/10/29 10:16:23;;;;;;;45.47;28.40;;;;;;;;;;5062525;28;20017;-77
2021/10/29 10:18:49;;;;;;;49.75;29.13;;;;;;;;;;5064553;28;20043;-76
2021/10/29 10:21:19;;;;;;;45.50;28.45;;;;;;;;;;5064521;28;20032;-76
2021/10/29 10:23:47;;;;;;;43.92;28.02;;;;;;;;;;5064968;28;20021;-77
2021/10/29 10:45:34;;;;;;;46.53;29.02;;;;;;;;;;5064519;28;20025;-74
2021/10/29 10:48:02;;;;;;;45.28;29.13;;;;;;;;;;5064626;28;20025;-75
2021/10/29 10:50:33;;;;;;;43.72;27.88;;;;;;;;;;5064527;28;20028;-75
2021/10/29 10:55:50;;;;;;;44.20;28.55;;;;;;;;;;5064380;28;20033;-74
2021/10/29 11:00:55;;;;;;;48.13;31.05;;;;;;;;;;5064259;28;20024;-74
2021/10/29 11:04:09;;;;;;;;;;;;;;;;;;5063419;28;20074;-74
2021/10/29 11:07:37;;;;;;;46.83;28.75;;;;;;;;;;5063405;28;19904;-77
2021/10/29 11:10:03;;;;;;;43.38;27.90;;;;;;;;;;5063204;28;20496;-74
2021/10/29 11:12:42;;;;;;;44.97;29.65;;;;;;;;;;5064174;28;20051;-75
2021/10/29 11:15:22;;;;;;;50.92;30.05;;;;;;;;;;5062665;28;20128;-76
2021/10/29 11:17:55;;;;;;;46.03;28.52;;;;;;;;;;5063960;28;20020;-76
2021/10/29 11:20:36;;;;;;;46.93;30.00;;;;;;;;;;5064033;28;20102;-76
2021/10/29 11:23:05;;;;;;;47.75;29.58;;;;;;;;;;5063543;28;20250;-75
2021/10/29 11:26:01;;;;;;;50.05;29.42;;;;;;;;;;5064082;28;20111;-75
2021/10/29 11:28:31;;;;;;;44.60;27.90;;;;;;;;;;5063485;28;20028;-76
2021/10/29 11:30:58;;;;;;;47.83;28.92;;;;;;;;;;5063447;28;20083;-76
2021/10/29 11:33:25;;;;;;;43.65;27.80;;;;;;;;;;5062675;28;20067;-75
2021/10/29 11:36:01;;;;;;;41.97;27.83;;;;;;;;;;5061954;28;20033;-75
2021/10/29 11:38:29;;;;;;;44.28;28.85;;;;;;;;;;5063830;28;20029;-76
2021/10/29 11:40:55;;;;;;;44.78;28.92;;;;;;;;;;5063698;28;20164;-76
2021/10/29 11:43:27;;;;;;;42.30;29.27;;;;;;;;;;5063979;28;20021;-76
2021/10/29 11:45:53;;;;;;;40.10;28.08;;;;;;;;;;5062187;28;20118;-75
2021/10/29 11:48:18;;;;;;;44.20;29.65;;;;;;;;;;5062271;28;20480;-77
2021/10/29 11:50:45;;;;;;;47.80;31.08;;;;;;;;;;5063542;28;20025;-75
2021/10/29 11:53:16;;;;;;;47.17;30.23;;;;;;;;;;5063445;28;20039;-75
2021/10/29 11:55:47;;;;;;;49.25;30.17;;;;;;;;;;5063596;28;20446;-74
2021/10/29 11:58:21;;;;;;;45.42;29.15;;;;;;;;;;5063892;28;20074;-76
2021/10/29 12:01:08;;;;;;;47.15;29.27;;;;;;;;;;5063563;28;20039;-74
2021/10/29 12:09:27;;;;;;;47.22;29.45;;;;;;;;;;5063906;28;20040;-75
2021/10/29 12:12:16;;;;;;;44.60;28.95;;;;;;;;;;5061969;28;20055;-76
2021/10/29 12:14:46;;;;;;;43.28;28.42;;;;;;;;;;5063583;28;20123;-74
2021/10/29 12:20:10;;;;;;;46.42;28.88;;;;;;;;;;5063940;28;20033;-75
2021/10/29 12:22:40;;;;;;;39.30;27.80;;;;;;;;;;5063532;28;20049;-74
2021/10/29 12:25:41;;;;;;;45.03;28.95;;;;;;;;;;5063273;28;20033;-75
2021/10/29 12:28:10;;;;;;;43.28;26.73;;;;;;;;;;5061612;28;20040;-76
2021/10/29 12:30:50;;;;;;;41.88;28.00;;;;;;;;;;5062327;28;20057;-78
